sensor_id;sensor_type;location;lat;lon;timestamp;P1;durP1;ratioP1;P2;durP2;ratioP2
62788;SDS011;66401;42.016;21.454;2023-10-31T00:01:20;20.67;;;10.80;;
62788;SDS011;66401;42.016;21.454;2023-10-31T00:03:46;23.33;;;11.10;;
62788;SDS011;66401;42.016;21.454;2023-10-31T00:06:12;15.57;;;10.17;;
62788;SDS011;66401;42.016;21.454;2023-10-31T00:08:37;18.30;;;9.23;;
62788;SDS011;66401;42.016;21.454;2023-10-31T00:11:03;23.07;;;10.60;;
62788;SDS011;66401;42.016;21.454;2023-10-31T00:13:28;21.70;;;9.70;;
62788;SDS011;66401;42.016;21.454;2023-10-31T00:15:54;20.03;;;10.40;;
62788;SDS011;66401;42.016;21.454;2023-10-31T00:18:19;21.13;;;9.20;;
62788;SDS011;66401;42.016;21.454;2023-10-31T00:20:45;17.50;;;9.87;;
62788;SDS011;66401;42.016;21.454;2023-10-31T00:23:11;18.07;;;9.23;;
62788;SDS011;66401;42.016;21.454;2023-10-31T00:25:37;19.97;;;10.10;;
62788;SDS011;66401;42.016;21.454;2023-10-31T00:28:03;16.87;;;10.37;;
62788;SDS011;66401;42.016;21.454;2023-10-31T00:30:28;23.33;;;11.40;;
62788;SDS011;66401;42.016;21.454;2023-10-31T00:32:54;22.80;;;11.23;;
62788;SDS011;66401;42.016;21.454;2023-10-31T00:35:19;22.40;;;11.53;;
62788;SDS011;66401;42.016;21.454;2023-10-31T00:37:45;21.47;;;11.87;;
62788;SDS011;66401;42.016;21.454;2023-10-31T00:40:10;18.30;;;10.93;;
62788;SDS011;66401;42.016;21.454;2023-10-31T00:42:39;18.67;;;11.27;;
62788;SDS011;66401;42.016;21.454;2023-10-31T00:45:07;17.00;;;8.27;;
62788;SDS011;66401;42.016;21.454;2023-10-31T00:47:33;12.50;;;7.73;;
62788;SDS011;66401;42.016;21.454;2023-10-31T00:49:59;17.83;;;9.83;;
62788;SDS011;66401;42.016;21.454;2023-10-31T00:52:24;16.57;;;9.90;;
62788;SDS011;66401;42.016;21.454;2023-10-31T00:54:50;19.20;;;9.80;;
62788;SDS011;66401;42.016;21.454;2023-10-31T00:57:15;19.60;;;8.57;;
62788;SDS011;66401;42.016;21.454;2023-10-31T00:59:41;10.83;;;6.77;;
62788;SDS011;66401;42.016;21.454;2023-10-31T01:02:06;13.73;;;7.80;;
62788;SDS011;66401;42.016;21.454;2023-10-31T01:04:32;10.93;;;7.07;;
62788;SDS011;66401;42.016;21.454;2023-10-31T01:06:57;12.97;;;7.50;;
62788;SDS011;66401;42.016;21.454;2023-10-31T01:09:23;11.80;;;8.53;;
62788;SDS011;66401;42.016;21.454;2023-10-31T01:11:48;12.07;;;7.10;;
62788;SDS011;66401;42.016;21.454;2023-10-31T01:14:14;15.47;;;8.40;;
62788;SDS011;66401;42.016;21.454;2023-10-31T01:16:40;17.23;;;8.10;;
62788;SDS011;66401;42.016;21.454;2023-10-31T01:19:06;13.43;;;8.10;;
62788;SDS011;66401;42.016;21.454;2023-10-31T01:21:32;15.53;;;7.37;;
62788;SDS011;66401;42.016;21.454;2023-10-31T01:23:58;10.90;;;7.40;;
62788;SDS011;66401;42.016;21.454;2023-10-31T01:26:24;13.43;;;7.80;;
62788;SDS011;66401;42.016;21.454;2023-10-31T01:28:49;11.10;;;7.33;;
62788;SDS011;66401;42.016;21.454;2023-10-31T01:31:15;14.63;;;7.90;;
62788;SDS011;66401;42.016;21.454;2023-10-31T01:33:41;12.20;;;8.20;;
62788;SDS011;66401;42.016;21.454;2023-10-31T01:36:06;10.87;;;8.10;;
62788;SDS011;66401;42.016;21.454;2023-10-31T01:38:32;10.87;;;6.67;;
62788;SDS011;66401;42.016;21.454;2023-10-31T01:40:57;11.97;;;6.67;;
62788;SDS011;66401;42.016;21.454;2023-10-31T01:43:36;11.33;;;7.63;;
62788;SDS011;66401;42.016;21.454;2023-10-31T01:46:02;13.17;;;6.63;;
62788;SDS011;66401;42.016;21.454;2023-10-31T01:48:32;13.47;;;7.27;;
62788;SDS011;66401;42.016;21.454;2023-10-31T01:50:58;10.73;;;7.03;;
62788;SDS011;66401;42.016;21.454;2023-10-31T01:53:25;8.83;;;6.30;;
62788;SDS011;66401;42.016;21.454;2023-10-31T01:55:53;12.07;;;6.00;;
62788;SDS011;66401;42.016;21.454;2023-10-31T01:58:23;7.67;;;5.87;;
62788;SDS011;66401;42.016;21.454;2023-10-31T02:00:59;9.17;;;5.90;;
62788;SDS011;66401;42.016;21.454;2023-10-31T02:03:26;15.27;;;7.20;;
62788;SDS011;66401;42.016;21.454;2023-10-31T02:05:52;10.87;;;6.27;;
62788;SDS011;66401;42.016;21.454;2023-10-31T02:08:18;10.73;;;6.83;;
62788;SDS011;66401;42.016;21.454;2023-10-31T02:10:44;11.50;;;5.90;;
62788;SDS011;66401;42.016;21.454;2023-10-31T02:13:10;10.23;;;6.60;;
62788;SDS011;66401;42.016;21.454;2023-10-31T02:15:39;12.50;;;6.37;;
62788;SDS011;66401;42.016;21.454;2023-10-31T02:18:05;9.17;;;6.87;;
62788;SDS011;66401;42.016;21.454;2023-10-31T02:20:31;13.53;;;7.43;;
62788;SDS011;66401;42.016;21.454;2023-10-31T02:22:57;14.40;;;7.07;;
62788;SDS011;66401;42.016;21.454;2023-10-31T02:25:22;9.03;;;7.03;;
62788;SDS011;66401;42.016;21.454;2023-10-31T02:27:48;8.40;;;6.13;;
62788;SDS011;66401;42.016;21.454;2023-10-31T02:30:13;14.10;;;7.70;;
62788;SDS011;66401;42.016;21.454;2023-10-31T02:32:39;12.50;;;7.43;;
62788;SDS011;66401;42.016;21.454;2023-10-31T02:35:06;11.10;;;7.10;;
62788;SDS011;66401;42.016;21.454;2023-10-31T02:37:32;13.50;;;7.07;;
62788;SDS011;66401;42.016;21.454;2023-10-31T02:39:58;13.53;;;8.03;;
62788;SDS011;66401;42.016;21.454;2023-10-31T02:42:25;11.47;;;7.73;;
62788;SDS011;66401;42.016;21.454;2023-10-31T02:44:51;10.53;;;7.13;;
62788;SDS011;66401;42.016;21.454;2023-10-31T02:47:16;13.97;;;7.70;;
62788;SDS011;66401;42.016;21.454;2023-10-31T02:49:42;14.07;;;7.87;;
62788;SDS011;66401;42.016;21.454;2023-10-31T02:52:07;13.27;;;7.07;;
62788;SDS011;66401;42.016;21.454;2023-10-31T02:54:33;11.13;;;6.67;;
62788;SDS011;66401;42.016;21.454;2023-10-31T02:56:58;13.33;;;6.90;;
62788;SDS011;66401;42.016;21.454;2023-10-31T02:59:24;14.90;;;6.57;;
62788;SDS011;66401;42.016;21.454;2023-10-31T03:01:49;8.53;;;5.80;;
62788;SDS011;66401;42.016;21.454;2023-10-31T03:04:15;14.13;;;6.70;;
62788;SDS011;66401;42.016;21.454;2023-10-31T03:06:41;10.20;;;6.03;;
62788;SDS011;66401;42.016;21.454;2023-10-31T03:09:07;11.23;;;6.37;;
62788;SDS011;66401;42.016;21.454;2023-10-31T03:11:33;16.20;;;7.37;;
62788;SDS011;66401;42.016;21.454;2023-10-31T03:13:58;9.87;;;6.90;;
62788;SDS011;66401;42.016;21.454;2023-10-31T03:16:24;14.80;;;10.13;;
62788;SDS011;66401;42.016;21.454;2023-10-31T03:18:50;20.17;;;14.00;;
62788;SDS011;66401;42.016;21.454;2023-10-31T03:21:16;19.23;;;10.07;;
62788;SDS011;66401;42.016;21.454;2023-10-31T03:23:43;12.37;;;9.13;;
62788;SDS011;66401;42.016;21.454;2023-10-31T03:26:11;17.43;;;9.57;;
62788;SDS011;66401;42.016;21.454;2023-10-31T03:28:37;19.97;;;9.40;;
62788;SDS011;66401;42.016;21.454;2023-10-31T03:31:03;16.57;;;8.73;;
62788;SDS011;66401;42.016;21.454;2023-10-31T03:33:28;14.37;;;8.87;;
62788;SDS011;66401;42.016;21.454;2023-10-31T03:35:54;12.40;;;9.00;;
62788;SDS011;66401;42.016;21.454;2023-10-31T03:38:19;13.33;;;7.43;;
62788;SDS011;66401;42.016;21.454;2023-10-31T03:40:45;21.13;;;8.53;;
62788;SDS011;66401;42.016;21.454;2023-10-31T03:43:10;10.50;;;6.83;;
62788;SDS011;66401;42.016;21.454;2023-10-31T03:45:35;11.30;;;7.47;;
62788;SDS011;66401;42.016;21.454;2023-10-31T03:48:01;13.43;;;7.20;;
62788;SDS011;66401;42.016;21.454;2023-10-31T03:50:27;16.07;;;7.67;;
62788;SDS011;66401;42.016;21.454;2023-10-31T03:52:52;19.07;;;8.50;;
62788;SDS011;66401;42.016;21.454;2023-10-31T03:55:18;12.97;;;7.63;;
62788;SDS011;66401;42.016;21.454;2023-10-31T03:57:43;16.77;;;8.50;;
62788;SDS011;66401;42.016;21.454;2023-10-31T04:00:09;18.57;;;7.20;;
62788;SDS011;66401;42.016;21.454;2023-10-31T04:02:36;10.83;;;6.53;;
62788;SDS011;66401;42.016;21.454;2023-10-31T04:05:02;8.60;;;5.30;;
62788;SDS011;66401;42.016;21.454;2023-10-31T04:07:28;12.37;;;5.50;;
62788;SDS011;66401;42.016;21.454;2023-10-31T04:09:53;11.00;;;5.40;;
62788;SDS011;66401;42.016;21.454;2023-10-31T04:12:19;6.77;;;5.17;;
62788;SDS011;66401;42.016;21.454;2023-10-31T04:14:45;5.73;;;4.80;;
62788;SDS011;66401;42.016;21.454;2023-10-31T04:17:10;7.00;;;5.27;;
62788;SDS011;66401;42.016;21.454;2023-10-31T04:19:36;11.37;;;5.03;;
62788;SDS011;66401;42.016;21.454;2023-10-31T04:22:02;8.57;;;5.23;;
62788;SDS011;66401;42.016;21.454;2023-10-31T04:24:27;6.33;;;4.67;;
62788;SDS011;66401;42.016;21.454;2023-10-31T04:26:53;8.67;;;5.43;;
62788;SDS011;66401;42.016;21.454;2023-10-31T04:29:19;8.33;;;5.07;;
62788;SDS011;66401;42.016;21.454;2023-10-31T04:31:44;11.23;;;5.83;;
62788;SDS011;66401;42.016;21.454;2023-10-31T04:34:10;8.50;;;5.47;;
62788;SDS011;66401;42.016;21.454;2023-10-31T04:36:35;8.00;;;5.07;;
62788;SDS011;66401;42.016;21.454;2023-10-31T04:39:01;7.77;;;5.47;;
62788;SDS011;66401;42.016;21.454;2023-10-31T04:41:27;8.63;;;5.13;;
62788;SDS011;66401;42.016;21.454;2023-10-31T04:43:52;10.93;;;5.10;;
62788;SDS011;66401;42.016;21.454;2023-10-31T04:46:18;7.43;;;4.93;;
62788;SDS011;66401;42.016;21.454;2023-10-31T04:48:43;8.80;;;5.90;;
62788;SDS011;66401;42.016;21.454;2023-10-31T04:51:09;7.17;;;5.93;;
62788;SDS011;66401;42.016;21.454;2023-10-31T04:53:34;11.20;;;6.80;;
62788;SDS011;66401;42.016;21.454;2023-10-31T04:56:00;8.87;;;6.57;;
62788;SDS011;66401;42.016;21.454;2023-10-31T04:58:25;7.63;;;6.00;;
62788;SDS011;66401;42.016;21.454;2023-10-31T05:00:51;13.77;;;6.73;;
62788;SDS011;66401;42.016;21.454;2023-10-31T05:03:16;11.40;;;6.57;;
62788;SDS011;66401;42.016;21.454;2023-10-31T05:05:43;11.60;;;6.77;;
62788;SDS011;66401;42.016;21.454;2023-10-31T05:08:09;11.40;;;7.73;;
62788;SDS011;66401;42.016;21.454;2023-10-31T05:10:35;12.30;;;8.93;;
62788;SDS011;66401;42.016;21.454;2023-10-31T05:13:00;12.67;;;9.10;;
62788;SDS011;66401;42.016;21.454;2023-10-31T05:15:29;11.13;;;7.77;;
62788;SDS011;66401;42.016;21.454;2023-10-31T05:17:54;13.00;;;7.53;;
62788;SDS011;66401;42.016;21.454;2023-10-31T05:20:20;12.57;;;7.13;;
62788;SDS011;66401;42.016;21.454;2023-10-31T05:22:45;12.33;;;8.30;;
62788;SDS011;66401;42.016;21.454;2023-10-31T05:25:11;18.30;;;9.47;;
62788;SDS011;66401;42.016;21.454;2023-10-31T05:27:37;22.97;;;12.00;;
62788;SDS011;66401;42.016;21.454;2023-10-31T05:30:02;27.87;;;14.67;;
62788;SDS011;66401;42.016;21.454;2023-10-31T05:32:28;24.57;;;13.53;;
62788;SDS011;66401;42.016;21.454;2023-10-31T05:34:54;27.93;;;13.20;;
62788;SDS011;66401;42.016;21.454;2023-10-31T05:37:19;16.23;;;10.00;;
62788;SDS011;66401;42.016;21.454;2023-10-31T05:39:45;16.57;;;8.47;;
62788;SDS011;66401;42.016;21.454;2023-10-31T05:42:11;13.70;;;8.63;;
62788;SDS011;66401;42.016;21.454;2023-10-31T05:44:36;13.00;;;8.43;;
62788;SDS011;66401;42.016;21.454;2023-10-31T05:47:02;11.97;;;7.47;;
62788;SDS011;66401;42.016;21.454;2023-10-31T05:49:27;14.03;;;7.50;;
62788;SDS011;66401;42.016;21.454;2023-10-31T05:51:53;10.37;;;7.53;;
62788;SDS011;66401;42.016;21.454;2023-10-31T05:54:19;13.93;;;7.93;;
62788;SDS011;66401;42.016;21.454;2023-10-31T05:56:44;9.90;;;6.93;;
62788;SDS011;66401;42.016;21.454;2023-10-31T05:59:10;10.90;;;6.90;;
62788;SDS011;66401;42.016;21.454;2023-10-31T06:01:36;12.07;;;7.53;;
62788;SDS011;66401;42.016;21.454;2023-10-31T06:04:02;13.63;;;8.30;;
62788;SDS011;66401;42.016;21.454;2023-10-31T06:06:29;10.93;;;6.97;;
62788;SDS011;66401;42.016;21.454;2023-10-31T06:08:57;16.20;;;8.23;;
62788;SDS011;66401;42.016;21.454;2023-10-31T06:11:23;18.00;;;9.13;;
62788;SDS011;66401;42.016;21.454;2023-10-31T06:13:48;14.70;;;8.53;;
62788;SDS011;66401;42.016;21.454;2023-10-31T06:16:14;18.47;;;8.47;;
62788;SDS011;66401;42.016;21.454;2023-10-31T06:18:39;16.10;;;7.73;;
62788;SDS011;66401;42.016;21.454;2023-10-31T06:21:07;10.97;;;8.83;;
62788;SDS011;66401;42.016;21.454;2023-10-31T06:23:35;20.70;;;9.53;;
62788;SDS011;66401;42.016;21.454;2023-10-31T06:26:03;14.33;;;8.83;;
62788;SDS011;66401;42.016;21.454;2023-10-31T06:28:29;14.53;;;9.93;;
62788;SDS011;66401;42.016;21.454;2023-10-31T06:30:55;14.93;;;9.23;;
62788;SDS011;66401;42.016;21.454;2023-10-31T06:33:20;17.30;;;9.17;;
62788;SDS011;66401;42.016;21.454;2023-10-31T06:35:46;15.17;;;8.33;;
62788;SDS011;66401;42.016;21.454;2023-10-31T06:38:11;14.27;;;9.97;;
62788;SDS011;66401;42.016;21.454;2023-10-31T06:40:38;21.67;;;9.80;;
62788;SDS011;66401;42.016;21.454;2023-10-31T06:43:03;17.20;;;10.97;;
62788;SDS011;66401;42.016;21.454;2023-10-31T06:45:29;16.37;;;9.67;;
62788;SDS011;66401;42.016;21.454;2023-10-31T06:47:54;18.93;;;10.57;;
62788;SDS011;66401;42.016;21.454;2023-10-31T06:50:20;18.07;;;10.93;;
62788;SDS011;66401;42.016;21.454;2023-10-31T06:52:45;20.40;;;11.73;;
62788;SDS011;66401;42.016;21.454;2023-10-31T06:55:11;23.93;;;11.53;;
62788;SDS011;66401;42.016;21.454;2023-10-31T06:57:36;23.20;;;12.43;;
62788;SDS011;66401;42.016;21.454;2023-10-31T07:00:02;20.70;;;11.33;;
62788;SDS011;66401;42.016;21.454;2023-10-31T07:02:28;22.10;;;11.73;;
62788;SDS011;66401;42.016;21.454;2023-10-31T07:04:53;21.30;;;13.30;;
62788;SDS011;66401;42.016;21.454;2023-10-31T07:07:19;19.27;;;11.33;;
62788;SDS011;66401;42.016;21.454;2023-10-31T07:09:45;22.37;;;12.60;;
62788;SDS011;66401;42.016;21.454;2023-10-31T07:12:10;20.00;;;12.23;;
62788;SDS011;66401;42.016;21.454;2023-10-31T07:14:36;22.60;;;12.37;;
62788;SDS011;66401;42.016;21.454;2023-10-31T07:17:01;19.73;;;11.63;;
62788;SDS011;66401;42.016;21.454;2023-10-31T07:19:27;19.77;;;11.50;;
62788;SDS011;66401;42.016;21.454;2023-10-31T07:21:53;26.90;;;11.40;;
62788;SDS011;66401;42.016;21.454;2023-10-31T07:24:19;22.07;;;10.70;;
62788;SDS011;66401;42.016;21.454;2023-10-31T07:26:45;20.30;;;10.33;;
62788;SDS011;66401;42.016;21.454;2023-10-31T07:29:11;25.43;;;12.70;;
62788;SDS011;66401;42.016;21.454;2023-10-31T07:31:37;24.83;;;12.07;;
62788;SDS011;66401;42.016;21.454;2023-10-31T07:34:04;29.10;;;13.93;;
62788;SDS011;66401;42.016;21.454;2023-10-31T07:36:30;26.50;;;12.63;;
62788;SDS011;66401;42.016;21.454;2023-10-31T07:38:57;41.20;;;17.97;;
62788;SDS011;66401;42.016;21.454;2023-10-31T07:41:23;40.83;;;21.40;;
62788;SDS011;66401;42.016;21.454;2023-10-31T07:43:49;47.63;;;22.23;;
62788;SDS011;66401;42.016;21.454;2023-10-31T07:46:14;45.17;;;19.33;;
62788;SDS011;66401;42.016;21.454;2023-10-31T07:48:40;47.80;;;19.00;;
62788;SDS011;66401;42.016;21.454;2023-10-31T07:51:05;55.73;;;21.20;;
62788;SDS011;66401;42.016;21.454;2023-10-31T07:53:31;39.27;;;20.70;;
62788;SDS011;66401;42.016;21.454;2023-10-31T07:55:56;34.47;;;18.03;;
62788;SDS011;66401;42.016;21.454;2023-10-31T07:58:22;42.43;;;20.97;;
62788;SDS011;66401;42.016;21.454;2023-10-31T08:00:47;46.63;;;20.93;;
62788;SDS011;66401;42.016;21.454;2023-10-31T08:03:13;35.87;;;19.57;;
62788;SDS011;66401;42.016;21.454;2023-10-31T08:05:38;40.13;;;18.53;;
62788;SDS011;66401;42.016;21.454;2023-10-31T08:08:05;36.10;;;17.60;;
62788;SDS011;66401;42.016;21.454;2023-10-31T08:10:30;37.33;;;17.80;;
62788;SDS011;66401;42.016;21.454;2023-10-31T08:12:56;33.63;;;16.93;;
62788;SDS011;66401;42.016;21.454;2023-10-31T08:15:21;37.93;;;17.00;;
62788;SDS011;66401;42.016;21.454;2023-10-31T08:17:47;51.93;;;19.87;;
62788;SDS011;66401;42.016;21.454;2023-10-31T08:20:13;45.40;;;19.87;;
62788;SDS011;66401;42.016;21.454;2023-10-31T08:22:39;36.47;;;17.80;;
62788;SDS011;66401;42.016;21.454;2023-10-31T08:25:07;37.47;;;18.53;;
62788;SDS011;66401;42.016;21.454;2023-10-31T08:27:33;37.53;;;17.43;;
62788;SDS011;66401;42.016;21.454;2023-10-31T08:29:59;39.93;;;19.00;;
62788;SDS011;66401;42.016;21.454;2023-10-31T08:32:25;47.97;;;22.33;;
62788;SDS011;66401;42.016;21.454;2023-10-31T08:34:50;40.57;;;20.67;;
62788;SDS011;66401;42.016;21.454;2023-10-31T08:37:16;40.90;;;20.70;;
62788;SDS011;66401;42.016;21.454;2023-10-31T08:39:42;37.97;;;19.27;;
62788;SDS011;66401;42.016;21.454;2023-10-31T08:42:07;39.90;;;19.23;;
62788;SDS011;66401;42.016;21.454;2023-10-31T08:44:33;46.73;;;19.13;;
62788;SDS011;66401;42.016;21.454;2023-10-31T08:46:59;32.87;;;18.70;;
62788;SDS011;66401;42.016;21.454;2023-10-31T08:49:24;36.23;;;16.87;;
62788;SDS011;66401;42.016;21.454;2023-10-31T08:51:50;40.67;;;17.23;;
62788;SDS011;66401;42.016;21.454;2023-10-31T08:54:15;37.80;;;17.37;;
62788;SDS011;66401;42.016;21.454;2023-10-31T08:56:41;37.90;;;17.20;;
62788;SDS011;66401;42.016;21.454;2023-10-31T08:59:06;43.20;;;16.67;;
62788;SDS011;66401;42.016;21.454;2023-10-31T09:01:32;40.20;;;17.27;;
62788;SDS011;66401;42.016;21.454;2023-10-31T09:03:59;32.30;;;17.43;;
62788;SDS011;66401;42.016;21.454;2023-10-31T09:06:24;33.03;;;16.03;;
62788;SDS011;66401;42.016;21.454;2023-10-31T09:08:50;31.23;;;16.03;;
62788;SDS011;66401;42.016;21.454;2023-10-31T09:11:15;34.70;;;16.87;;
62788;SDS011;66401;42.016;21.454;2023-10-31T09:13:41;33.27;;;16.73;;
62788;SDS011;66401;42.016;21.454;2023-10-31T09:16:07;28.97;;;15.23;;
62788;SDS011;66401;42.016;21.454;2023-10-31T09:18:32;30.10;;;16.03;;
62788;SDS011;66401;42.016;21.454;2023-10-31T09:20:58;25.37;;;14.90;;
62788;SDS011;66401;42.016;21.454;2023-10-31T09:23:23;29.90;;;15.07;;
62788;SDS011;66401;42.016;21.454;2023-10-31T09:25:49;26.30;;;13.53;;
62788;SDS011;66401;42.016;21.454;2023-10-31T09:28:14;24.73;;;13.80;;
62788;SDS011;66401;42.016;21.454;2023-10-31T09:30:40;30.10;;;13.87;;
62788;SDS011;66401;42.016;21.454;2023-10-31T09:33:05;27.47;;;14.67;;
62788;SDS011;66401;42.016;21.454;2023-10-31T09:35:31;28.93;;;15.37;;
62788;SDS011;66401;42.016;21.454;2023-10-31T09:37:57;26.03;;;14.00;;
62788;SDS011;66401;42.016;21.454;2023-10-31T09:40:22;25.03;;;13.23;;
62788;SDS011;66401;42.016;21.454;2023-10-31T09:42:48;31.63;;;13.50;;
62788;SDS011;66401;42.016;21.454;2023-10-31T09:45:17;28.03;;;14.03;;
62788;SDS011;66401;42.016;21.454;2023-10-31T09:47:43;22.77;;;12.57;;
62788;SDS011;66401;42.016;21.454;2023-10-31T09:50:09;21.10;;;12.53;;
62788;SDS011;66401;42.016;21.454;2023-10-31T09:52:38;25.13;;;13.13;;
62788;SDS011;66401;42.016;21.454;2023-10-31T09:55:04;22.53;;;13.17;;
62788;SDS011;66401;42.016;21.454;2023-10-31T09:57:30;23.10;;;12.37;;
62788;SDS011;66401;42.016;21.454;2023-10-31T09:59:56;25.43;;;12.57;;
62788;SDS011;66401;42.016;21.454;2023-10-31T10:02:22;23.13;;;11.80;;
62788;SDS011;66401;42.016;21.454;2023-10-31T10:04:48;22.53;;;12.20;;
62788;SDS011;66401;42.016;21.454;2023-10-31T10:07:17;20.83;;;11.40;;
62788;SDS011;66401;42.016;21.454;2023-10-31T10:09:44;24.97;;;12.30;;
62788;SDS011;66401;42.016;21.454;2023-10-31T10:12:15;18.90;;;11.23;;
62788;SDS011;66401;42.016;21.454;2023-10-31T10:14:44;29.23;;;14.00;;
62788;SDS011;66401;42.016;21.454;2023-10-31T10:17:14;25.70;;;13.30;;
62788;SDS011;66401;42.016;21.454;2023-10-31T10:19:40;26.33;;;13.37;;
62788;SDS011;66401;42.016;21.454;2023-10-31T10:22:05;24.30;;;12.27;;
62788;SDS011;66401;42.016;21.454;2023-10-31T10:24:31;23.90;;;12.57;;
62788;SDS011;66401;42.016;21.454;2023-10-31T10:26:57;25.57;;;12.73;;
62788;SDS011;66401;42.016;21.454;2023-10-31T10:29:23;26.50;;;11.70;;
62788;SDS011;66401;42.016;21.454;2023-10-31T10:31:48;24.77;;;12.23;;
62788;SDS011;66401;42.016;21.454;2023-10-31T10:34:14;28.53;;;12.57;;
62788;SDS011;66401;42.016;21.454;2023-10-31T10:36:41;25.00;;;11.93;;
62788;SDS011;66401;42.016;21.454;2023-10-31T10:39:21;21.87;;;11.07;;
62788;SDS011;66401;42.016;21.454;2023-10-31T10:41:54;25.17;;;12.70;;
62788;SDS011;66401;42.016;21.454;2023-10-31T10:44:33;26.00;;;11.80;;
62788;SDS011;66401;42.016;21.454;2023-10-31T10:47:03;25.27;;;12.20;;
62788;SDS011;66401;42.016;21.454;2023-10-31T10:49:35;29.47;;;12.53;;
62788;SDS011;66401;42.016;21.454;2023-10-31T10:52:08;31.77;;;13.23;;
62788;SDS011;66401;42.016;21.454;2023-10-31T10:54:37;29.27;;;12.67;;
62788;SDS011;66401;42.016;21.454;2023-10-31T10:59:59;21.43;;;9.77;;
62788;SDS011;66401;42.016;21.454;2023-10-31T11:02:29;21.40;;;10.97;;
62788;SDS011;66401;42.016;21.454;2023-10-31T11:04:56;28.60;;;11.00;;
62788;SDS011;66401;42.016;21.454;2023-10-31T11:07:21;24.77;;;10.37;;
62788;SDS011;66401;42.016;21.454;2023-10-31T11:09:49;21.17;;;10.23;;
62788;SDS011;66401;42.016;21.454;2023-10-31T11:12:14;19.27;;;10.53;;
62788;SDS011;66401;42.016;21.454;2023-10-31T11:14:41;18.63;;;9.73;;
62788;SDS011;66401;42.016;21.454;2023-10-31T11:17:41;16.53;;;8.67;;
62788;SDS011;66401;42.016;21.454;2023-10-31T11:20:01;22.90;;;10.33;;
62788;SDS011;66401;42.016;21.454;2023-10-31T11:22:40;27.07;;;11.10;;
62788;SDS011;66401;42.016;21.454;2023-10-31T11:25:09;16.77;;;9.63;;
62788;SDS011;66401;42.016;21.454;2023-10-31T11:27:37;16.53;;;8.57;;
62788;SDS011;66401;42.016;21.454;2023-10-31T11:30:06;17.30;;;7.40;;
62788;SDS011;66401;42.016;21.454;2023-10-31T11:32:47;13.60;;;5.87;;
62788;SDS011;66401;42.016;21.454;2023-10-31T11:35:15;7.70;;;4.30;;
62788;SDS011;66401;42.016;21.454;2023-10-31T11:37:47;6.03;;;3.83;;
62788;SDS011;66401;42.016;21.454;2023-10-31T11:40:15;8.93;;;4.03;;
62788;SDS011;66401;42.016;21.454;2023-10-31T11:42:49;6.07;;;3.53;;
62788;SDS011;66401;42.016;21.454;2023-10-31T11:48:03;8.80;;;4.73;;
62788;SDS011;66401;42.016;21.454;2023-10-31T11:50:30;7.60;;;4.67;;
62788;SDS011;66401;42.016;21.454;2023-10-31T11:53:10;8.20;;;4.63;;
62788;SDS011;66401;42.016;21.454;2023-10-31T11:55:43;11.53;;;5.20;;
62788;SDS011;66401;42.016;21.454;2023-10-31T11:58:21;10.03;;;5.07;;
62788;SDS011;66401;42.016;21.454;2023-10-31T12:00:48;9.40;;;4.60;;
62788;SDS011;66401;42.016;21.454;2023-10-31T12:03:20;11.83;;;5.23;;
62788;SDS011;66401;42.016;21.454;2023-10-31T12:05:55;7.80;;;5.07;;
62788;SDS011;66401;42.016;21.454;2023-10-31T12:08:30;9.37;;;4.90;;
62788;SDS011;66401;42.016;21.454;2023-10-31T12:11:30;10.67;;;4.93;;
62788;SDS011;66401;42.016;21.454;2023-10-31T12:13:53;12.90;;;5.17;;
62788;SDS011;66401;42.016;21.454;2023-10-31T12:16:19;12.40;;;5.37;;
62788;SDS011;66401;42.016;21.454;2023-10-31T12:18:53;8.47;;;5.13;;
62788;SDS011;66401;42.016;21.454;2023-10-31T12:21:20;6.93;;;5.00;;
62788;SDS011;66401;42.016;21.454;2023-10-31T12:24:07;10.77;;;4.87;;
62788;SDS011;66401;42.016;21.454;2023-10-31T12:26:38;10.50;;;5.17;;
62788;SDS011;66401;42.016;21.454;2023-10-31T12:29:17;12.80;;;4.87;;
62788;SDS011;66401;42.016;21.454;2023-10-31T12:31:47;7.77;;;4.77;;
62788;SDS011;66401;42.016;21.454;2023-10-31T12:34:15;8.67;;;4.87;;
62788;SDS011;66401;42.016;21.454;2023-10-31T12:36:42;11.77;;;4.53;;
62788;SDS011;66401;42.016;21.454;2023-10-31T12:39:10;7.70;;;4.97;;
62788;SDS011;66401;42.016;21.454;2023-10-31T12:41:37;11.37;;;4.77;;
62788;SDS011;66401;42.016;21.454;2023-10-31T12:44:05;11.13;;;4.80;;
62788;SDS011;66401;42.016;21.454;2023-10-31T12:46:35;10.27;;;5.30;;
62788;SDS011;66401;42.016;21.454;2023-10-31T12:49:04;10.43;;;5.60;;
62788;SDS011;66401;42.016;21.454;2023-10-31T12:51:55;8.63;;;5.70;;
62788;SDS011;66401;42.016;21.454;2023-10-31T12:54:34;11.07;;;5.17;;
62788;SDS011;66401;42.016;21.454;2023-10-31T12:57:02;7.43;;;5.17;;
62788;SDS011;66401;42.016;21.454;2023-10-31T12:59:29;11.23;;;5.33;;
62788;SDS011;66401;42.016;21.454;2023-10-31T13:01:56;10.83;;;5.20;;
62788;SDS011;66401;42.016;21.454;2023-10-31T13:04:28;13.30;;;5.60;;
62788;SDS011;66401;42.016;21.454;2023-10-31T13:07:03;11.03;;;6.10;;
62788;SDS011;66401;42.016;21.454;2023-10-31T13:09:33;12.17;;;5.27;;
62788;SDS011;66401;42.016;21.454;2023-10-31T13:12:02;9.67;;;5.13;;
62788;SDS011;66401;42.016;21.454;2023-10-31T13:14:32;9.47;;;5.07;;
62788;SDS011;66401;42.016;21.454;2023-10-31T13:16:58;12.23;;;5.60;;
62788;SDS011;66401;42.016;21.454;2023-10-31T13:19:24;13.93;;;5.47;;
62788;SDS011;66401;42.016;21.454;2023-10-31T13:21:50;10.67;;;5.60;;
62788;SDS011;66401;42.016;21.454;2023-10-31T13:24:16;11.20;;;5.47;;
62788;SDS011;66401;42.016;21.454;2023-10-31T13:26:41;12.60;;;5.37;;
62788;SDS011;66401;42.016;21.454;2023-10-31T13:29:08;9.90;;;4.93;;
62788;SDS011;66401;42.016;21.454;2023-10-31T13:31:34;9.57;;;4.90;;
62788;SDS011;66401;42.016;21.454;2023-10-31T13:33:59;8.83;;;4.93;;
62788;SDS011;66401;42.016;21.454;2023-10-31T13:36:25;12.33;;;4.90;;
62788;SDS011;66401;42.016;21.454;2023-10-31T13:38:50;7.97;;;4.43;;
62788;SDS011;66401;42.016;21.454;2023-10-31T13:41:16;12.97;;;5.13;;
62788;SDS011;66401;42.016;21.454;2023-10-31T13:43:41;11.03;;;5.00;;
62788;SDS011;66401;42.016;21.454;2023-10-31T13:46:07;8.53;;;4.90;;
62788;SDS011;66401;42.016;21.454;2023-10-31T13:48:32;8.80;;;4.63;;
62788;SDS011;66401;42.016;21.454;2023-10-31T13:50:58;7.13;;;4.80;;
62788;SDS011;66401;42.016;21.454;2023-10-31T13:53:23;9.10;;;4.57;;
62788;SDS011;66401;42.016;21.454;2023-10-31T13:55:49;8.10;;;5.17;;
62788;SDS011;66401;42.016;21.454;2023-10-31T13:58:14;10.80;;;5.13;;
62788;SDS011;66401;42.016;21.454;2023-10-31T14:00:40;10.70;;;5.13;;
62788;SDS011;66401;42.016;21.454;2023-10-31T14:03:06;13.37;;;5.03;;
62788;SDS011;66401;42.016;21.454;2023-10-31T14:05:32;9.73;;;5.13;;
62788;SDS011;66401;42.016;21.454;2023-10-31T14:07:57;10.40;;;5.27;;
62788;SDS011;66401;42.016;21.454;2023-10-31T14:10:23;13.67;;;5.20;;
62788;SDS011;66401;42.016;21.454;2023-10-31T14:12:49;9.33;;;4.90;;
62788;SDS011;66401;42.016;21.454;2023-10-31T14:15:15;12.90;;;6.13;;
62788;SDS011;66401;42.016;21.454;2023-10-31T14:17:41;8.83;;;6.30;;
62788;SDS011;66401;42.016;21.454;2023-10-31T14:20:06;10.03;;;5.20;;
62788;SDS011;66401;42.016;21.454;2023-10-31T14:22:32;12.90;;;6.20;;